Time;durP1;ratioP1;P1;durP2;ratioP2;P2;SDS_P1;SDS_P2;PMS_P1;PMS_P2;Temp;Humidity;BMP_temperature;BMP_pressure;BME280_temperature;BME280_humidity;BME280_pressure;Samples;Min_cycle;Max_cycle;Signal;HPM_P1;HPM_P2
2023/11/17 00:02:21;;;;;;;15.33;14.53;;;6.90;99.90;;;;;;4881031;29;20216;-78
2023/11/17 00:04:48;;;;;;;15.33;14.53;;;6.90;99.90;;;;;;4887640;29;20220;-78
2023/11/17 00:07:16;;;;;;;15.87;15.07;;;6.90;99.90;;;;;;4872581;29;20248;-78
2023/11/17 00:09:43;;;;;;;15.33;14.53;;;6.90;99.90;;;;;;4887240;29;20205;-77
2023/11/17 00:12:09;;;;;;;15.67;14.77;;;6.90;99.90;;;;;;4887659;29;20323;-78
2023/11/17 00:14:37;;;;;;;15.20;14.40;;;6.80;99.90;;;;;;4888195;29;20200;-78
2023/11/17 00:17:04;;;;;;;15.20;14.40;;;6.80;99.90;;;;;;4888553;29;20701;-77
2023/11/17 00:19:33;;;;;;;15.60;14.70;;;6.80;99.90;;;;;;4888563;29;20208;-78
2023/11/17 00:21:59;;;;;;;15.30;14.50;;;6.80;99.90;;;;;;4885873;29;20338;-78
2023/11/17 00:24:27;;;;;;;15.30;14.50;;;6.70;99.90;;;;;;4879283;29;20737;-77
2023/11/17 00:26:54;;;;;;;15.67;14.87;;;6.70;99.90;;;;;;4887215;29;20248;-78
2023/11/17 00:29:21;;;;;;;15.83;15.03;;;6.60;99.90;;;;;;4881474;29;20590;-77
2023/11/17 00:31:48;;;;;;;15.80;14.80;;;6.70;99.90;;;;;;4868649;29;20213;-78
2023/11/17 00:34:14;;;;;;;16.00;15.10;;;6.60;99.90;;;;;;4882043;29;20792;-78
2023/11/17 00:36:45;;;;;;;16.00;15.10;;;6.60;99.90;;;;;;4887180;29;20236;-78
2023/11/17 00:39:14;;;;;;;15.70;14.90;;;6.60;99.90;;;;;;4873119;29;20268;-78
2023/11/17 00:41:42;;;;;;;16.30;15.40;;;6.60;99.90;;;;;;4885740;29;20673;-78
2023/11/17 00:44:10;;;;;;;16.30;15.40;;;6.60;99.90;;;;;;4888604;29;20226;-78
2023/11/17 00:46:37;;;;;;;16.27;15.37;;;6.60;99.90;;;;;;4885889;29;20224;-78
2023/11/17 00:49:04;;;;;;;16.13;15.23;;;6.50;99.90;;;;;;4887468;29;20204;-78
2023/11/17 00:51:33;;;;;;;16.47;15.57;;;6.50;99.90;;;;;;4886028;29;20217;-78
2023/11/17 00:54:04;;;;;;;16.33;15.43;;;6.50;99.90;;;;;;4885508;29;20204;-77
2023/11/17 00:56:32;;;;;;;16.63;15.73;;;6.50;99.90;;;;;;4886220;29;20248;-78
2023/11/17 00:59:00;;;;;;;16.50;15.60;;;6.50;99.90;;;;;;4881126;29;20204;-76
2023/11/17 01:01:27;;;;;;;15.87;15.07;;;6.40;99.90;;;;;;4883256;29;20311;-78
2023/11/17 01:03:54;;;;;;;16.50;15.60;;;6.40;99.90;;;;;;4876948;29;20300;-78
2023/11/17 01:06:21;;;;;;;16.03;15.13;;;6.30;99.90;;;;;;4878255;29;20634;-77
2023/11/17 01:08:48;;;;;;;16.50;15.60;;;6.30;99.90;;;;;;4885223;29;20207;-77
2023/11/17 01:11:16;;;;;;;16.17;15.37;;;6.30;99.90;;;;;;4887084;29;20212;-78
2023/11/17 01:13:43;;;;;;;16.43;15.43;;;6.30;99.90;;;;;;4886825;29;20242;-77
2023/11/17 01:16:10;;;;;;;16.10;15.20;;;6.30;99.90;;;;;;4881328;29;20199;-77
2023/11/17 01:18:37;;;;;;;16.10;15.30;;;6.20;99.90;;;;;;4878398;29;20276;-77
2023/11/17 01:21:05;;;;;;;16.03;15.13;;;6.20;99.90;;;;;;4885964;29;20236;-77
2023/11/17 01:23:32;;;;;;;16.03;15.10;;;6.20;99.90;;;;;;4883191;29;20230;-78
2023/11/17 01:25:59;;;;;;;16.17;15.37;;;6.20;99.90;;;;;;4887280;29;20736;-77
2023/11/17 01:28:27;;;;;;;16.00;15.10;;;6.10;99.90;;;;;;4869880;29;20296;-78
2023/11/17 01:30:54;;;;;;;15.87;15.07;;;6.10;99.90;;;;;;4874313;29;20207;-77
2023/11/17 01:33:21;;;;;;;15.87;15.03;;;6.10;99.90;;;;;;4874430;29;20207;-78
2023/11/17 01:35:49;;;;;;;15.90;15.10;;;6.10;99.90;;;;;;4878805;29;20223;-78
2023/11/17 01:38:16;;;;;;;15.90;15.10;;;6.10;99.90;;;;;;4886771;29;20223;-77
2023/11/17 01:40:42;;;;;;;15.73;14.93;;;6.10;99.90;;;;;;4885264;29;20218;-78
2023/11/17 01:43:11;;;;;;;16.30;15.40;;;6.10;99.90;;;;;;4884851;29;20227;-76
2023/11/17 01:45:40;;;;;;;16.40;15.60;;;6.10;99.90;;;;;;4877823;29;20231;-78
2023/11/17 01:48:08;;;;;;;16.60;15.70;;;6.10;99.90;;;;;;4884881;29;20233;-77
2023/11/17 01:50:35;;;;;;;16.37;15.57;;;6.10;99.90;;;;;;4884829;29;20231;-78
2023/11/17 01:53:02;;;;;;;16.80;15.80;;;6.00;99.90;;;;;;4873227;29;20203;-78
2023/11/17 01:55:29;;;;;;;16.83;15.93;;;6.00;99.90;;;;;;4875101;29;20204;-78
2023/11/17 01:57:57;;;;;;;16.27;15.47;;;6.00;99.90;;;;;;4878430;29;20223;-78
2023/11/17 02:00:24;;;;;;;16.50;15.70;;;6.00;99.90;;;;;;4884809;29;20233;-78
2023/11/17 02:02:55;;;;;;;16.70;15.80;;;6.00;99.90;;;;;;4885057;29;20203;-78
2023/11/17 02:05:24;;;;;;;16.57;15.70;;;6.00;99.90;;;;;;4885207;29;20287;-77
2023/11/17 02:08:08;;;;;;;16.30;15.50;;;6.00;99.90;;;;;;4878761;29;20243;-77
2023/11/17 02:10:43;;;;;;;16.73;15.83;;;6.00;99.90;;;;;;4885548;29;20207;-78
2023/11/17 02:13:20;;;;;;;16.60;15.70;;;6.00;99.90;;;;;;4877797;29;20214;-77
2023/11/17 02:15:50;;;;;;;16.80;15.90;;;6.00;99.90;;;;;;4885039;29;20198;-78
2023/11/17 02:18:22;;;;;;;15.97;15.17;;;6.00;99.90;;;;;;4886970;29;20623;-78
2023/11/17 02:20:52;;;;;;;15.50;14.70;;;6.00;99.90;;;;;;4874608;29;20237;-78
2023/11/17 02:23:21;;;;;;;14.47;13.77;;;6.00;99.90;;;;;;4881516;29;20207;-78
2023/11/17 02:26:07;;;;;;;14.10;13.40;;;6.00;99.90;;;;;;4888236;29;20246;-77
2023/11/17 02:28:43;;;;;;;14.13;13.43;;;6.00;99.90;;;;;;4871603;29;20279;-78
2023/11/17 02:31:15;;;;;;;14.83;14.03;;;6.00;99.90;;;;;;4870417;29;20214;-78
2023/11/17 02:33:45;;;;;;;15.80;14.80;;;6.00;99.90;;;;;;4887285;29;20207;-78
2023/11/17 02:36:17;;;;;;;15.63;14.73;;;6.00;99.90;;;;;;4875463;29;20199;-78
2023/11/17 02:38:51;;;;;;;16.47;15.67;;;6.10;99.90;;;;;;4887583;29;20211;-78
2023/11/17 02:41:28;;;;;;;17.30;16.40;;;6.10;99.90;;;;;;4890401;29;20207;-78
2023/11/17 02:43:57;;;;;;;17.23;16.33;;;6.10;99.90;;;;;;4889660;29;20207;-78
2023/11/17 02:46:32;;;;;;;17.30;16.40;;;6.10;99.90;;;;;;4890550;29;20226;-78
2023/11/17 02:49:09;;;;;;;16.77;15.90;;;6.10;99.90;;;;;;4887888;29;20194;-78
2023/11/17 02:51:43;;;;;;;17.13;16.10;;;6.00;99.90;;;;;;4886807;29;20235;-78
2023/11/17 02:54:13;;;;;;;17.00;16.10;;;6.00;99.90;;;;;;4886509;29;20295;-78
2023/11/17 02:56:41;;;;;;;17.10;16.20;;;6.00;99.90;;;;;;4887431;29;20227;-77
2023/11/17 02:59:09;;;;;;;16.83;15.93;;;6.00;99.90;;;;;;4887704;29;20673;-78
2023/11/17 03:01:39;;;;;;;17.07;16.17;;;6.00;99.90;;;;;;4887754;29;20215;-78
2023/11/17 03:04:13;;;;;;;16.83;15.93;;;6.00;99.90;;;;;;4870990;29;20275;-78
2023/11/17 03:06:45;;;;;;;16.73;15.83;;;6.00;99.90;;;;;;4884999;29;20223;-77
2023/11/17 03:09:14;;;;;;;17.30;16.30;;;6.00;99.90;;;;;;4887274;29;20274;-78
2023/11/17 03:11:42;;;;;;;17.03;16.13;;;6.00;99.90;;;;;;4889994;29;20691;-78
2023/11/17 03:14:09;;;;;;;16.13;15.33;;;6.00;99.90;;;;;;4876515;29;20203;-77
2023/11/17 03:16:38;;;;;;;16.67;15.77;;;5.90;99.90;;;;;;4887621;29;20607;-78
2023/11/17 03:19:10;;;;;;;16.87;15.97;;;5.90;99.90;;;;;;4890536;29;20210;-78
2023/11/17 03:21:40;;;;;;;17.77;16.77;;;5.90;99.90;;;;;;4881400;29;20214;-78
2023/11/17 03:24:14;;;;;;;17.90;16.80;;;5.90;99.90;;;;;;4889435;29;20207;-78
2023/11/17 03:26:44;;;;;;;16.93;16.03;;;5.90;99.90;;;;;;4887796;29;20239;-78
2023/11/17 03:29:14;;;;;;;17.63;16.73;;;6.00;99.90;;;;;;4877831;29;20204;-78
2023/11/17 03:31:47;;;;;;;17.60;16.60;;;6.00;99.90;;;;;;4878189;29;20330;-78
2023/11/17 03:34:15;;;;;;;17.17;16.23;;;6.00;99.90;;;;;;4887342;29;20206;-78
2023/11/17 03:36:42;;;;;;;17.10;16.20;;;6.00;99.90;;;;;;4888356;29;20225;-78
2023/11/17 03:39:12;;;;;;;17.13;16.23;;;6.00;99.90;;;;;;4875181;29;20212;-78
2023/11/17 03:41:40;;;;;;;16.50;15.60;;;6.00;99.90;;;;;;4886218;29;20731;-82
2023/11/17 03:44:07;;;;;;;16.37;15.57;;;6.00;99.90;;;;;;4886446;29;20215;-78
2023/11/17 03:46:35;;;;;;;16.27;15.37;;;6.00;99.90;;;;;;4872246;29;20691;-79
2023/11/17 03:49:04;;;;;;;16.30;15.40;;;6.10;99.90;;;;;;4874514;29;20202;-78
2023/11/17 03:51:30;;;;;;;16.03;15.23;;;6.00;99.90;;;;;;4875439;29;20203;-82
2023/11/17 03:53:57;;;;;;;16.83;15.93;;;6.00;99.90;;;;;;4875671;29;20204;-82
2023/11/17 03:56:27;;;;;;;16.80;15.90;;;6.00;99.90;;;;;;4873962;29;20214;-80
2023/11/17 03:58:54;;;;;;;16.53;15.63;;;6.10;99.90;;;;;;4886839;29;20253;-81
2023/11/17 04:01:21;;;;;;;16.10;15.30;;;6.00;99.90;;;;;;4877156;29;20196;-80
2023/11/17 04:03:48;;;;;;;17.50;16.60;;;6.00;99.90;;;;;;4880425;29;20198;-81
2023/11/17 04:06:16;;;;;;;16.50;15.70;;;6.00;99.90;;;;;;4880034;29;20673;-81
2023/11/17 04:08:43;;;;;;;16.50;15.60;;;5.90;99.90;;;;;;4879117;29;20292;-81
2023/11/17 04:11:14;;;;;;;16.97;16.07;;;5.90;99.90;;;;;;4869236;29;20888;-81
2023/11/17 04:13:42;;;;;;;16.73;15.83;;;5.90;99.90;;;;;;4879152;29;20583;-81
2023/11/17 04:16:10;;;;;;;16.13;15.33;;;6.00;99.90;;;;;;4879451;29;20211;-83
2023/11/17 04:18:42;;;;;;;16.07;15.27;;;6.00;99.90;;;;;;4878109;29;20250;-82
2023/11/17 04:21:11;;;;;;;16.17;15.37;;;6.00;99.90;;;;;;4881518;29;20293;-82
2023/11/17 04:23:39;;;;;;;15.60;14.80;;;6.00;99.90;;;;;;4881004;29;20207;-84
2023/11/17 04:26:09;;;;;;;16.30;15.50;;;6.00;99.90;;;;;;4869905;29;20650;-79
2023/11/17 04:28:37;;;;;;;16.70;15.80;;;6.00;99.90;;;;;;4875057;29;20225;-81
2023/11/17 04:31:05;;;;;;;16.60;15.70;;;6.00;99.90;;;;;;4877007;29;20212;-82
2023/11/17 04:33:32;;;;;;;15.70;14.80;;;6.00;99.90;;;;;;4878255;29;20208;-79
2023/11/17 04:36:00;;;;;;;15.87;15.07;;;6.00;99.90;;;;;;4863224;29;20202;-78
2023/11/17 04:38:27;;;;;;;16.10;15.30;;;5.90;99.90;;;;;;4870814;29;20232;-78
2023/11/17 04:40:55;;;;;;;16.33;15.53;;;5.90;99.90;;;;;;4871424;29;20252;-78
2023/11/17 04:43:22;;;;;;;15.67;14.87;;;5.90;99.90;;;;;;4876714;29;20699;-77
2023/11/17 04:45:49;;;;;;;16.20;15.40;;;5.90;99.90;;;;;;4872989;29;20241;-78
2023/11/17 04:48:17;;;;;;;15.60;14.80;;;5.90;99.90;;;;;;4872211;29;20215;-78
2023/11/17 04:50:44;;;;;;;16.10;15.30;;;5.90;99.90;;;;;;4874268;29;20270;-78
2023/11/17 04:53:10;;;;;;;16.33;15.53;;;5.90;99.90;;;;;;4868982;29;20274;-78
2023/11/17 04:55:37;;;;;;;16.20;15.40;;;5.90;99.90;;;;;;4875830;29;20251;-78
2023/11/17 04:58:05;;;;;;;15.73;14.93;;;5.80;99.90;;;;;;4877269;29;20313;-78
2023/11/17 05:00:32;;;;;;;16.17;15.37;;;5.90;99.90;;;;;;4864074;29;20794;-78
2023/11/17 05:03:00;;;;;;;16.10;15.30;;;5.90;99.90;;;;;;4876642;29;20286;-78
2023/11/17 05:05:27;;;;;;;15.73;14.93;;;5.90;99.90;;;;;;4874243;29;20252;-78
2023/11/17 05:07:56;;;;;;;16.30;15.50;;;5.90;99.90;;;;;;4888216;29;20613;-78
2023/11/17 05:10:23;;;;;;;16.60;15.80;;;5.80;99.90;;;;;;4879859;29;20263;-77
2023/11/17 05:12:52;;;;;;;16.67;15.87;;;5.80;99.90;;;;;;4881021;29;20263;-77
2023/11/17 05:15:22;;;;;;;16.40;15.60;;;5.80;99.90;;;;;;4873544;29;20198;-78
2023/11/17 05:17:49;;;;;;;17.20;16.30;;;5.80;99.90;;;;;;4880665;29;20226;-77
2023/11/17 05:20:18;;;;;;;16.97;15.97;;;5.80;99.90;;;;;;4879802;29;20283;-77
2023/11/17 05:22:46;;;;;;;16.47;15.67;;;5.80;99.90;;;;;;4879970;29;20208;-81
2023/11/17 05:25:13;;;;;;;16.40;15.50;;;5.80;99.90;;;;;;4872227;29;20704;-80
2023/11/17 05:27:41;;;;;;;16.30;15.37;;;5.80;99.90;;;;;;4875423;29;20231;-80
2023/11/17 05:30:10;;;;;;;16.23;15.40;;;5.90;99.90;;;;;;4878564;29;20579;-80
2023/11/17 05:32:41;;;;;;;16.13;15.33;;;5.90;99.90;;;;;;4879400;29;20221;-81
2023/11/17 05:35:09;;;;;;;15.60;14.80;;;5.90;99.90;;;;;;4877642;29;20216;-81
2023/11/17 05:37:36;;;;;;;16.40;15.60;;;5.80;99.90;;;;;;4874065;29;20226;-80
2023/11/17 05:40:05;;;;;;;15.73;14.93;;;5.90;99.90;;;;;;4873783;29;20213;-81
2023/11/17 05:42:32;;;;;;;16.60;15.70;;;5.80;99.90;;;;;;4880769;29;20215;-80
2023/11/17 05:44:59;;;;;;;16.90;15.90;;;5.80;99.90;;;;;;4875127;29;20263;-80
2023/11/17 05:47:26;;;;;;;16.93;16.03;;;5.80;99.90;;;;;;4875548;29;20612;-80
2023/11/17 05:49:56;;;;;;;16.73;15.93;;;5.80;99.90;;;;;;4877022;29;20204;-80
2023/11/17 05:52:26;;;;;;;16.70;15.80;;;5.80;99.90;;;;;;4871369;29;20190;-80
2023/11/17 05:55:03;;;;;;;16.30;15.50;;;5.80;99.90;;;;;;4871094;29;20202;-81
2023/11/17 05:57:33;;;;;;;16.80;15.90;;;5.90;99.90;;;;;;4871402;29;20226;-79
2023/11/17 06:00:02;;;;;;;16.27;15.47;;;5.90;99.90;;;;;;4877012;29;20202;-79
2023/11/17 06:02:39;;;;;;;16.10;15.30;;;5.80;99.90;;;;;;4873706;29;20800;-80
2023/11/17 06:05:13;;;;;;;16.50;15.60;;;5.80;99.90;;;;;;4875580;29;20263;-80
2023/11/17 06:07:46;;;;;;;17.30;16.37;;;5.90;99.90;;;;;;4881841;29;20672;-80
2023/11/17 06:10:16;;;;;;;16.50;15.60;;;5.90;99.90;;;;;;4879360;29;20201;-81
2023/11/17 06:12:48;;;;;;;16.57;15.73;;;5.90;99.90;;;;;;4872419;29;20211;-81
2023/11/17 06:15:23;;;;;;;16.23;15.43;;;5.90;99.90;;;;;;4879753;29;20241;-80
2023/11/17 06:17:55;;;;;;;16.70;15.80;;;5.80;99.90;;;;;;4873923;29;20242;-80
2023/11/17 06:20:33;;;;;;;16.53;15.63;;;5.80;99.90;;;;;;4882245;29;20596;-81
2023/11/17 06:25:42;;;;;;;16.40;15.50;;;5.80;99.90;;;;;;4881149;29;20738;-80
2023/11/17 06:28:09;;;;;;;16.13;15.27;;;5.90;99.90;;;;;;4882383;29;20649;-80
2023/11/17 06:30:43;;;;;;;17.10;16.20;;;5.90;99.90;;;;;;4874153;29;20373;-80
2023/11/17 06:33:16;;;;;;;16.70;15.80;;;5.90;99.90;;;;;;4882731;29;20218;-80
2023/11/17 06:35:49;;;;;;;16.00;15.20;;;5.90;99.90;;;;;;4875440;29;20210;-80
2023/11/17 06:38:16;;;;;;;15.80;15.00;;;5.90;99.90;;;;;;4868846;29;20264;-81
2023/11/17 06:40:43;;;;;;;15.87;15.07;;;5.80;99.90;;;;;;4884222;29;20211;-77
2023/11/17 06:43:10;;;;;;;16.03;15.20;;;5.90;99.90;;;;;;4883549;29;20216;-81
2023/11/17 06:45:37;;;;;;;15.93;15.13;;;5.80;99.90;;;;;;4876047;29;20269;-81
2023/11/17 06:48:06;;;;;;;15.77;14.97;;;5.90;99.90;;;;;;4870826;29;20228;-81
2023/11/17 06:50:34;;;;;;;15.73;14.93;;;5.90;99.90;;;;;;4866957;29;20200;-82
2023/11/17 06:53:03;;;;;;;15.80;14.90;;;5.90;99.90;;;;;;4869123;29;20711;-81
2023/11/17 06:55:30;;;;;;;15.90;15.10;;;5.80;99.90;;;;;;4870266;29;20214;-81
2023/11/17 06:57:57;;;;;;;16.17;15.20;;;5.80;99.90;;;;;;4880453;29;20230;-82
2023/11/17 07:00:24;;;;;;;16.20;15.30;;;5.90;99.90;;;;;;4884339;29;20626;-81
2023/11/17 07:02:51;;;;;;;16.20;15.40;;;5.90;99.90;;;;;;4882490;29;20209;-82
2023/11/17 07:05:18;;;;;;;16.10;15.20;;;5.90;99.90;;;;;;4879920;29;20211;-81
2023/11/17 07:07:45;;;;;;;15.53;14.73;;;5.90;99.90;;;;;;4885114;29;20227;-82
2023/11/17 07:10:14;;;;;;;15.70;14.90;;;5.90;99.90;;;;;;4865632;29;20268;-82
2023/11/17 07:12:42;;;;;;;15.00;14.20;;;5.90;99.90;;;;;;4881416;29;20676;-82
2023/11/17 07:15:15;;;;;;;14.80;14.07;;;5.90;99.90;;;;;;4875580;29;20230;-81
2023/11/17 07:17:42;;;;;;;14.70;14.00;;;6.00;99.90;;;;;;4881591;29;20230;-81
2023/11/17 07:20:12;;;;;;;14.80;14.00;;;6.00;99.90;;;;;;4880385;29;20693;-82
2023/11/17 07:22:39;;;;;;;14.60;13.80;;;6.00;99.90;;;;;;4873299;29;20743;-80
2023/11/17 07:25:06;;;;;;;14.23;13.53;;;6.00;99.90;;;;;;4872578;29;20204;-81
2023/11/17 07:27:35;;;;;;;15.17;14.37;;;6.00;99.90;;;;;;4865271;29;20235;-80
2023/11/17 07:30:02;;;;;;;14.83;14.03;;;6.00;99.90;;;;;;4880612;29;20207;-80
2023/11/17 07:32:30;;;;;;;14.60;13.70;;;6.00;99.90;;;;;;4878419;29;20216;-81
2023/11/17 07:34:57;;;;;;;14.27;13.47;;;6.00;99.90;;;;;;4880561;29;20194;-80
2023/11/17 07:37:24;;;;;;;15.17;14.17;;;6.10;99.90;;;;;;4879667;29;20227;-80
2023/11/17 07:39:51;;;;;;;14.33;13.53;;;6.10;99.90;;;;;;4878096;29;20268;-80
2023/11/17 07:42:18;;;;;;;14.90;14.10;;;6.10;99.90;;;;;;4886864;29;20250;-78
2023/11/17 07:44:46;;;;;;;14.30;13.50;;;6.10;99.90;;;;;;4865677;29;20707;-77
2023/11/17 07:47:13;;;;;;;14.60;13.80;;;6.10;99.90;;;;;;4866623;29;20676;-77
2023/11/17 07:49:41;;;;;;;14.63;13.73;;;6.10;99.90;;;;;;4870227;29;20220;-76
2023/11/17 07:52:07;;;;;;;14.53;13.73;;;6.10;99.90;;;;;;4872281;29;20208;-77
2023/11/17 07:54:35;;;;;;;14.47;13.70;;;6.10;99.90;;;;;;4879304;29;20522;-77
2023/11/17 07:57:02;;;;;;;14.53;13.73;;;6.10;99.90;;;;;;4878807;29;20708;-81
2023/11/17 07:59:30;;;;;;;14.40;13.60;;;6.10;99.90;;;;;;4880612;29;20204;-81
2023/11/17 08:01:59;;;;;;;14.03;13.23;;;6.10;99.90;;;;;;4874953;29;20214;-81
2023/11/17 08:04:26;;;;;;;14.60;13.80;;;6.20;99.90;;;;;;4884158;29;20235;-81
2023/11/17 08:06:53;;;;;;;14.60;13.90;;;6.20;99.90;;;;;;4866744;29;20239;-81
2023/11/17 08:09:20;;;;;;;14.60;13.80;;;6.20;99.90;;;;;;4870462;29;20256;-82
2023/11/17 08:11:48;;;;;;;14.53;13.73;;;6.20;99.90;;;;;;4873960;29;20243;-82
2023/11/17 08:14:15;;;;;;;14.90;14.10;;;6.20;99.90;;;;;;4882010;29;20210;-81
2023/11/17 08:16:41;;;;;;;14.80;14.00;;;6.30;99.90;;;;;;4866081;29;20224;-84
2023/11/17 08:19:11;;;;;;;15.13;14.33;;;6.30;99.90;;;;;;4871133;29;20772;-81
2023/11/17 08:21:39;;;;;;;14.87;14.07;;;6.30;99.90;;;;;;4873489;29;20260;-82
2023/11/17 08:24:09;;;;;;;15.30;14.40;;;6.30;99.90;;;;;;4878504;29;20662;-81
2023/11/17 08:26:38;;;;;;;14.97;14.17;;;6.40;99.90;;;;;;4873113;29;20288;-80
2023/11/17 08:29:05;;;;;;;15.07;14.27;;;6.40;99.90;;;;;;4876364;29;20231;-80
2023/11/17 08:31:32;;;;;;;14.57;13.87;;;6.40;99.90;;;;;;4866889;29;20218;-81
2023/11/17 08:34:00;;;;;;;14.67;13.90;;;6.40;99.90;;;;;;4878709;29;20204;-82
2023/11/17 08:36:28;;;;;;;14.70;13.90;;;6.50;99.90;;;;;;4863138;29;20250;-82
2023/11/17 08:38:56;;;;;;;14.50;13.70;;;6.50;99.90;;;;;;4873588;29;20598;-82
2023/11/17 08:41:24;;;;;;;14.70;13.90;;;6.40;99.90;;;;;;4879619;29;20208;-80
2023/11/17 08:43:51;;;;;;;14.80;14.00;;;6.40;99.90;;;;;;4880639;29;20263;-80
2023/11/17 08:46:23;;;;;;;15.27;14.40;;;6.40;99.90;;;;;;4872240;29;20243;-79
2023/11/17 08:48:51;;;;;;;14.50;13.70;;;6.40;99.90;;;;;;4875467;29;20290;-87
2023/11/17 08:51:21;;;;;;;14.40;13.70;;;6.40;99.90;;;;;;4873870;29;20295;-82
2023/11/17 08:53:50;;;;;;;14.10;13.40;;;6.40;99.90;;;;;;4880816;29;20214;-82
2023/11/17 08:56:18;;;;;;;13.97;13.27;;;6.50;99.90;;;;;;4876611;29;20711;-81
2023/11/17 08:58:44;;;;;;;14.10;13.40;;;6.60;99.90;;;;;;4875506;29;20231;-81
2023/11/17 09:01:12;;;;;;;13.90;13.20;;;6.60;99.90;;;;;;4879950;29;20211;-82
2023/11/17 09:03:39;;;;;;;14.07;13.37;;;6.70;99.90;;;;;;4879793;29;20190;-78
2023/11/17 09:06:06;;;;;;;12.90;12.20;;;6.80;99.90;;;;;;4874667;29;20201;-78
2023/11/17 09:08:33;;;;;;;13.50;12.80;;;6.80;99.90;;;;;;4878060;29;20247;-78
2023/11/17 09:11:01;;;;;;;13.70;13.00;;;6.80;99.90;;;;;;4872330;29;20205;-78
2023/11/17 09:13:28;;;;;;;14.20;13.40;;;6.80;99.90;;;;;;4884756;29;20248;-78
2023/11/17 09:15:55;;;;;;;13.13;12.43;;;6.80;99.90;;;;;;4876291;29;20210;-78
2023/11/17 09:18:22;;;;;;;13.20;12.40;;;6.80;99.90;;;;;;4883670;29;20227;-78
2023/11/17 09:20:49;;;;;;;12.70;12.00;;;6.90;99.90;;;;;;4878101;29;20232;-78
2023/11/17 09:23:17;;;;;;;12.60;11.90;;;6.90;99.90;;;;;;4882818;29;20580;-78
2023/11/17 09:25:44;;;;;;;13.33;12.53;;;6.90;99.90;;;;;;4883565;29;20240;-78
2023/11/17 09:28:12;;;;;;;12.57;11.97;;;7.00;99.90;;;;;;4875377;29;20256;-77
2023/11/17 09:30:39;;;;;;;13.20;12.50;;;7.00;99.90;;;;;;4874500;29;20215;-78
2023/11/17 09:33:08;;;;;;;12.80;12.10;;;7.10;99.90;;;;;;4885096;29;20235;-78
2023/11/17 09:35:36;;;;;;;12.53;11.93;;;7.10;99.90;;;;;;4890847;29;20708;-78
2023/11/17 09:38:05;;;;;;;12.53;11.93;;;7.10;99.90;;;;;;4881551;29;20697;-78
2023/11/17 09:40:33;;;;;;;12.77;12.07;;;7.10;99.90;;;;;;4884745;29;20292;-77
2023/11/17 09:43:05;;;;;;;12.50;11.80;;;7.10;99.90;;;;;;4884820;29;20216;-78
2023/11/17 09:45:37;;;;;;;12.57;11.87;;;7.20;99.90;;;;;;4879345;29;20269;-78
2023/11/17 09:48:07;;;;;;;12.33;11.70;;;7.30;99.90;;;;;;4876858;29;20738;-78
2023/11/17 09:50:34;;;;;;;12.53;11.83;;;7.30;99.90;;;;;;4876270;29;20233;-78
2023/11/17 09:53:01;;;;;;;12.40;11.70;;;7.30;99.90;;;;;;4882911;29;20265;-78
2023/11/17 09:55:30;;;;;;;12.50;11.80;;;7.40;99.90;;;;;;4884030;29;20228;-78
2023/11/17 09:58:02;;;;;;;13.57;12.67;;;7.50;99.90;;;;;;4876070;29;20281;-77
2023/11/17 10:00:29;;;;;;;12.77;11.97;;;7.60;99.90;;;;;;4888281;29;20211;-78
2023/11/17 10:03:01;;;;;;;12.40;11.70;;;7.70;99.90;;;;;;4884021;29;20268;-78
2023/11/17 10:05:31;;;;;;;11.93;11.33;;;7.70;99.90;;;;;;4882600;29;20231;-78
2023/11/17 10:08:03;;;;;;;13.23;12.53;;;7.80;99.90;;;;;;4881007;29;20340;-78
2023/11/17 10:10:36;;;;;;;13.17;12.47;;;7.80;99.90;;;;;;4888126;29;20560;-78
2023/11/17 10:13:03;;;;;;;13.20;12.50;;;7.80;99.90;;;;;;4879293;29;20281;-78
2023/11/17 10:15:32;;;;;;;13.23;12.40;;;7.80;99.90;;;;;;4887050;29;20225;-78
2023/11/17 10:18:05;;;;;;;13.40;12.60;;;7.70;99.90;;;;;;4886019;29;20245;-78
2023/11/17 10:20:33;;;;;;;12.80;12.10;;;7.60;99.90;;;;;;4887215;29;20283;-78
2023/11/17 10:23:01;;;;;;;13.30;12.60;;;7.60;99.90;;;;;;4892503;29;20766;-78
2023/11/17 10:25:29;;;;;;;13.33;12.63;;;7.70;99.90;;;;;;4887444;29;20242;-77
2023/11/17 10:27:57;;;;;;;13.37;12.50;;;7.60;99.90;;;;;;4878282;29;20774;-77
2023/11/17 10:30:30;;;;;;;13.20;12.50;;;7.60;99.90;;;;;;4883320;29;20205;-77
2023/11/17 10:33:06;;;;;;;13.43;12.73;;;7.70;99.90;;;;;;4879585;29;20537;-78
2023/11/17 10:35:34;;;;;;;13.07;12.37;;;7.70;99.90;;;;;;4879366;29;20296;-77
2023/11/17 10:38:05;;;;;;;13.50;12.80;;;7.70;99.90;;;;;;4894476;29;20221;-77
2023/11/17 10:40:33;;;;;;;13.53;12.83;;;7.70;99.90;;;;;;4887771;29;20615;-81
2023/11/17 10:43:08;;;;;;;13.77;13.07;;;7.60;99.90;;;;;;4890174;29;20236;-79
2023/11/17 10:45:37;;;;;;;13.33;12.63;;;7.60;99.90;;;;;;4885285;29;20304;-79
2023/11/17 10:48:07;;;;;;;13.40;12.70;;;7.60;99.90;;;;;;4882172;29;20228;-82
2023/11/17 10:50:35;;;;;;;13.70;13.00;;;7.60;99.90;;;;;;4890442;29;20213;-79
2023/11/17 10:53:14;;;;;;;13.50;12.80;;;7.60;99.90;;;;;;4889923;29;20209;-78
2023/11/17 10:55:42;;;;;;;13.07;12.37;;;7.60;99.90;;;;;;4881643;29;20198;-80
2023/11/17 10:58:13;;;;;;;13.23;12.53;;;7.60;99.90;;;;;;4880569;29;20225;-80
2023/11/17 11:00:40;;;;;;;13.30;12.60;;;7.70;99.90;;;;;;4887395;29;20221;-80
2023/11/17 11:03:10;;;;;;;13.07;12.37;;;7.80;99.90;;;;;;4887793;29;20212;-80
2023/11/17 11:05:39;;;;;;;13.50;12.80;;;7.90;99.90;;;;;;4881306;29;20210;-80
2023/11/17 11:08:12;;;;;;;13.70;13.00;;;8.00;99.90;;;;;;4885429;29;20244;-80
2023/11/17 11:10:39;;;;;;;13.30;12.60;;;8.00;99.90;;;;;;4885175;29;20209;-80
2023/11/17 11:13:06;;;;;;;13.30;12.60;;;8.00;99.90;;;;;;4893171;29;20221;-80
2023/11/17 11:15:33;;;;;;;12.93;12.23;;;8.10;99.90;;;;;;4886338;29;20262;-78
2023/11/17 11:18:05;;;;;;;13.60;12.87;;;8.10;99.90;;;;;;4886966;29;20220;-78
2023/11/17 11:20:34;;;;;;;13.57;12.87;;;8.10;99.90;;;;;;4882890;29;20209;-80
2023/11/17 11:23:03;;;;;;;13.00;12.30;;;8.10;99.90;;;;;;4887481;29;20248;-79
2023/11/17 11:25:31;;;;;;;13.40;12.70;;;8.10;99.90;;;;;;4880087;29;20208;-78
2023/11/17 11:28:03;;;;;;;13.33;12.63;;;8.10;99.90;;;;;;4888920;29;20228;-79
2023/11/17 11:30:32;;;;;;;13.37;12.67;;;8.00;99.90;;;;;;4888760;29;20201;-80
2023/11/17 11:32:59;;;;;;;13.80;13.10;;;8.00;99.90;;;;;;4884790;29;20201;-80
2023/11/17 11:35:27;;;;;;;13.67;12.87;;;8.00;99.90;;;;;;4884477;29;20197;-80
2023/11/17 11:37:55;;;;;;;13.40;12.70;;;8.00;99.90;;;;;;4875341;29;20217;-79
2023/11/17 11:40:23;;;;;;;13.20;12.50;;;7.90;99.90;;;;;;4880468;29;20682;-79
2023/11/17 11:42:50;;;;;;;13.00;12.30;;;7.90;99.90;;;;;;4877211;29;20589;-79
2023/11/17 11:45:17;;;;;;;13.03;12.33;;;7.80;99.90;;;;;;4876808;29;20217;-77
2023/11/17 11:47:49;;;;;;;13.00;12.20;;;7.80;99.90;;;;;;4881379;29;20638;-77
2023/11/17 11:50:20;;;;;;;11.97;11.37;;;7.70;99.90;;;;;;4882810;29;20220;-78
2023/11/17 11:53:07;;;;;;;12.97;12.27;;;7.70;99.90;;;;;;4884147;29;20205;-77
2023/11/17 11:55:34;;;;;;;12.73;12.03;;;7.70;99.90;;;;;;4879598;29;20675;-76
2023/11/17 11:58:03;;;;;;;13.30;12.50;;;7.70;99.90;;;;;;4870111;29;20214;-78
2023/11/17 12:00:32;;;;;;;13.30;12.60;;;7.70;99.90;;;;;;4884204;29;20209;-77
2023/11/17 12:03:01;;;;;;;13.20;12.50;;;7.70;99.90;;;;;;4880145;29;20209;-77
2023/11/17 12:05:33;;;;;;;13.07;12.37;;;7.70;99.90;;;;;;4869018;29;20217;-78
2023/11/17 12:08:03;;;;;;;13.00;12.30;;;7.70;99.90;;;;;;4873757;29;20237;-77
2023/11/17 12:10:35;;;;;;;13.13;12.43;;;7.70;99.90;;;;;;4881955;29;20212;-77
2023/11/17 12:13:03;;;;;;;13.07;12.37;;;7.70;99.90;;;;;;4884616;29;20739;-77
2023/11/17 12:15:31;;;;;;;12.90;12.20;;;7.70;99.90;;;;;;4866577;29;20209;-78
2023/11/17 12:18:05;;;;;;;13.10;12.40;;;7.80;99.90;;;;;;4870784;29;20225;-78
2023/11/17 12:20:33;;;;;;;12.60;11.90;;;7.80;99.90;;;;;;4870228;29;20300;-77
2023/11/17 12:23:03;;;;;;;13.43;12.67;;;7.80;99.90;;;;;;4872039;29;20269;-77
2023/11/17 12:25:30;;;;;;;13.10;12.40;;;7.80;99.90;;;;;;4885011;29;20197;-78
2023/11/17 12:27:58;;;;;;;13.40;12.70;;;7.90;99.90;;;;;;4879184;29;20296;-78
2023/11/17 12:30:27;;;;;;;13.23;12.43;;;7.90;99.90;;;;;;4881267;29;20205;-77
2023/11/17 12:32:56;;;;;;;14.43;13.43;;;8.00;99.90;;;;;;4879095;29;20198;-77
2023/11/17 12:35:23;;;;;;;13.60;12.80;;;8.00;99.90;;;;;;4886734;29;20659;-78
2023/11/17 12:37:51;;;;;;;13.30;12.50;;;7.90;99.90;;;;;;4879620;29;20229;-77
2023/11/17 12:40:20;;;;;;;13.10;12.40;;;7.90;99.90;;;;;;4878768;29;20641;-78
2023/11/17 12:42:47;;;;;;;13.83;13.03;;;7.80;99.90;;;;;;4883537;29;20209;-78
2023/11/17 12:45:16;;;;;;;12.77;12.07;;;7.80;99.90;;;;;;4878878;29;20668;-77
2023/11/17 12:47:44;;;;;;;12.87;12.17;;;7.80;99.90;;;;;;4886011;29;20711;-77